createdAt,value
2017-01-03T00:00:34.479Z,4.32
2017-01-03T00:01:35.331Z,4.32
2017-01-03T00:02:34.917Z,4.24
2017-01-03T00:03:35.312Z,4.2
2017-01-03T00:04:34.927Z,4.23
2017-01-03T00:05:34.938Z,4.34
2017-01-03T00:06:34.959Z,4.2
2017-01-03T00:07:34.973Z,4.24
2017-01-03T00:08:35.001Z,4.22
2017-01-03T00:09:34.597Z,4.32
2017-01-03T00:10:34.640Z,4.31
2017-01-03T00:11:35.409Z,4.28
2017-01-03T00:12:34.626Z,4.26
2017-01-03T00:13:35.035Z,4.23
2017-01-03T00:14:35.050Z,4.3
2017-01-03T00:15:34.668Z,4.24
2017-01-03T00:16:35.122Z,4.2
2017-01-03T00:17:35.091Z,4.31
2017-01-03T00:18:35.105Z,4.26
2017-01-03T00:19:35.528Z,4.3
2017-01-03T00:20:35.124Z,4.22
2017-01-03T00:21:35.141Z,4.19
2017-01-03T00:22:35.551Z,4.19
2017-01-03T00:23:35.187Z,4.14
2017-01-03T00:24:35.185Z,4.13
2017-01-03T00:25:35.583Z,4.13
2017-01-03T00:26:35.200Z,4.14
2017-01-03T00:27:34.810Z,4.16
2017-01-03T00:28:35.220Z,4.22
2017-01-03T00:29:35.634Z,4.22
2017-01-03T00:30:35.274Z,4.19
2017-01-03T00:31:35.662Z,4.19
2017-01-03T00:32:35.686Z,4.14
2017-01-03T00:33:34.900Z,4.23
2017-01-03T00:34:35.292Z,4.19
2017-01-03T00:35:35.726Z,4.19
2017-01-03T00:36:35.331Z,4.2
2017-01-03T00:37:35.359Z,4.23
2017-01-03T00:38:35.344Z,4.22
2017-01-03T00:39:35.755Z,4.22
2017-01-03T00:40:34.971Z,4.28
2017-01-03T00:41:35.376Z,4.23
2017-01-03T00:42:35.794Z,4.2
2017-01-03T00:43:35.803Z,4.2
2017-01-03T00:44:35.413Z,4.19
2017-01-03T00:45:35.040Z,4.22
2017-01-03T00:46:35.450Z,4.24
2017-01-03T00:47:35.454Z,4.2
2017-01-03T00:48:35.068Z,4.2
2017-01-03T00:49:35.076Z,4.26
2017-01-03T00:50:35.895Z,4.31
2017-01-03T00:51:35.104Z,4.17
2017-01-03T00:52:35.924Z,4.31
2017-01-03T00:53:35.527Z,4.3
2017-01-03T00:54:35.539Z,4.26
2017-01-03T00:55:35.160Z,4.24
2017-01-03T00:56:35.971Z,4.34
2017-01-03T00:57:35.585Z,4.26
2017-01-03T00:58:35.186Z,4.32
2017-01-03T00:59:35.601Z,4.24
2017-01-03T01:00:36.015Z,4.3
2017-01-03T01:01:35.627Z,4.3
2017-01-03T01:02:36.063Z,4.24
2017-01-03T01:03:35.258Z,4.26
2017-01-03T01:04:35.665Z,4.32
2017-01-03T01:05:35.279Z,4.2
2017-01-03T01:06:36.087Z,4.24
2017-01-03T01:07:35.705Z,4.22
2017-01-03T01:08:35.311Z,4.22
2017-01-03T01:09:35.722Z,4.31
2017-01-03T01:10:35.739Z,4.26
2017-01-03T01:11:35.347Z,4.22
2017-01-03T01:12:35.362Z,4.2
2017-01-03T01:13:35.373Z,4.2
2017-01-03T01:14:35.793Z,4.14
2017-01-03T01:15:35.408Z,4.14
2017-01-03T01:16:35.807Z,4.19
2017-01-03T01:17:35.822Z,4.23
2017-01-03T01:18:36.278Z,4.12
2017-01-03T01:19:36.244Z,4.14
2017-01-03T01:20:35.857Z,4.19
2017-01-03T01:21:35.872Z,4.24
2017-01-03T01:22:36.284Z,4.19
2017-01-03T01:23:35.899Z,4.19
2017-01-03T01:24:35.514Z,4.2
2017-01-03T01:25:36.331Z,4.2
2017-01-03T01:26:35.941Z,4.3
2017-01-03T01:27:35.950Z,4.23
2017-01-03T01:28:36.358Z,4.3
2017-01-03T01:29:36.431Z,4.22
2017-01-03T01:30:35.989Z,4.28
2017-01-03T01:31:35.594Z,4.32
2017-01-03T01:32:35.610Z,4.28
2017-01-03T01:33:36.421Z,4.34
2017-01-03T01:34:36.049Z,4.35
2017-01-03T01:35:35.649Z,4.41
2017-01-03T01:36:36.464Z,4.35
2017-01-03T01:37:35.671Z,4.34
2017-01-03T01:38:35.679Z,4.44
2017-01-03T01:39:36.489Z,4.4
2017-01-03T01:40:36.501Z,4.24
2017-01-03T01:41:36.113Z,4.32
2017-01-03T01:42:36.128Z,4.3
2017-01-03T01:43:36.545Z,4.32
2017-01-03T01:44:36.225Z,4.35
2017-01-03T01:45:35.763Z,4.35
2017-01-03T01:46:36.598Z,4.38
2017-01-03T01:47:36.194Z,4.37
2017-01-03T01:48:36.201Z,4.4
2017-01-03T01:49:36.646Z,4.37
2017-01-03T01:50:36.227Z,4.4
2017-01-03T01:51:36.239Z,4.34
2017-01-03T01:52:36.649Z,4.34
2017-01-03T01:53:35.864Z,4.41
2017-01-03T01:54:36.709Z,4.41
2017-01-03T01:55:36.291Z,4.4
2017-01-03T01:56:36.698Z,4.37
2017-01-03T01:57:36.717Z,4.34
2017-01-03T01:58:36.723Z,4.49
2017-01-03T01:59:35.960Z,4.37
2017-01-03T02:00:36.348Z,4.35
2017-01-03T02:01:36.366Z,4.38
2017-01-03T02:02:35.972Z,4.35
2017-01-03T02:03:36.386Z,4.45
2017-01-03T02:04:36.803Z,4.38
2017-01-03T02:05:36.410Z,4.38
2017-01-03T02:06:36.820Z,4.38
2017-01-03T02:07:36.834Z,4.35
2017-01-03T02:08:36.842Z,4.34
2017-01-03T02:09:36.483Z,4.34
2017-01-03T02:10:36.471Z,4.26
2017-01-03T02:11:36.085Z,4.28
2017-01-03T02:12:36.494Z,4.35
2017-01-03T02:13:36.110Z,4.38
2017-01-03T02:14:36.518Z,4.31
2017-01-03T02:15:36.532Z,4.32
2017-01-03T02:16:36.152Z,4.3
2017-01-03T02:17:36.159Z,4.3
2017-01-03T02:18:36.992Z,4.22
2017-01-03T02:19:36.582Z,4.23
2017-01-03T02:20:36.216Z,4.2
2017-01-03T02:21:36.206Z,4.34
2017-01-03T02:22:36.650Z,4.35
2017-01-03T02:23:36.632Z,4.31
2017-01-03T02:24:37.043Z,4.28
2017-01-03T02:25:36.655Z,4.35
2017-01-03T02:26:36.699Z,4.22
2017-01-03T02:27:36.704Z,4.24
2017-01-03T02:28:36.296Z,4.3
2017-01-03T02:29:36.700Z,4.34
2017-01-03T02:30:36.714Z,4.22
2017-01-03T02:31:36.730Z,4.31
2017-01-03T02:32:36.745Z,4.23
2017-01-03T02:33:36.754Z,4.31
2017-01-03T02:34:36.370Z,4.3
2017-01-03T02:35:37.174Z,4.22
2017-01-03T02:36:36.397Z,4.17
2017-01-03T02:37:36.399Z,4.19
2017-01-03T02:38:37.212Z,4.14
2017-01-03T02:39:36.828Z,4.32
2017-01-03T02:40:36.842Z,4.3
2017-01-03T02:41:37.248Z,4.38
2017-01-03T02:42:36.465Z,4.37
2017-01-03T02:43:37.279Z,4.35
2017-01-03T02:44:37.286Z,4.41
2017-01-03T02:45:36.901Z,4.37
2017-01-03T02:46:36.908Z,4.41
2017-01-03T02:47:36.549Z,4.31
2017-01-03T02:48:37.338Z,4.48
2017-01-03T02:49:37.348Z,4.44
2017-01-03T02:50:36.959Z,4.41
2017-01-03T02:51:36.573Z,4.4
2017-01-03T02:52:36.982Z,4.41
2017-01-03T02:53:37.002Z,4.31
2017-01-03T02:54:37.019Z,4.44
2017-01-03T02:55:37.420Z,4.37
2017-01-03T02:56:37.434Z,4.53
2017-01-03T02:57:36.650Z,4.44
2017-01-03T02:58:37.058Z,4.48
2017-01-03T02:59:37.094Z,4.45
2017-01-03T03:00:37.083Z,4.41
2017-01-03T03:01:36.702Z,4.3
2017-01-03T03:02:37.110Z,4.35
2017-01-03T03:03:37.520Z,4.37
2017-01-03T03:04:37.143Z,4.41
2017-01-03T03:05:37.546Z,4.4
2017-01-03T03:06:36.763Z,4.45
2017-01-03T03:07:36.770Z,4.44
2017-01-03T03:08:37.207Z,4.38
2017-01-03T03:09:36.815Z,4.44
2017-01-03T03:10:37.204Z,4.42
2017-01-03T03:11:37.618Z,4.42
2017-01-03T03:12:37.232Z,4.44
2017-01-03T03:13:37.642Z,4.41
2017-01-03T03:14:36.857Z,4.44
2017-01-03T03:15:37.662Z,4.35
2017-01-03T03:16:37.283Z,4.42
2017-01-03T03:17:36.891Z,4.48
2017-01-03T03:18:37.706Z,4.4
2017-01-03T03:19:37.736Z,4.3
2017-01-03T03:20:36.932Z,4.34
2017-01-03T03:21:37.737Z,4.41
2017-01-03T03:22:37.756Z,4.34
2017-01-03T03:23:37.369Z,4.42
2017-01-03T03:24:37.379Z,4.44
2017-01-03T03:25:36.997Z,4.4
2017-01-03T03:26:37.803Z,4.45
2017-01-03T03:27:37.416Z,4.37
2017-01-03T03:28:37.827Z,4.3
2017-01-03T03:29:37.438Z,4.37
2017-01-03T03:30:37.457Z,4.4
2017-01-03T03:31:37.466Z,4.31
2017-01-03T03:32:37.077Z,4.37
2017-01-03T03:33:37.490Z,4.41
2017-01-03T03:34:37.102Z,4.44
2017-01-03T03:35:37.513Z,4.34
2017-01-03T03:36:37.152Z,4.35
2017-01-03T03:37:37.559Z,4.41
2017-01-03T03:38:37.946Z,4.32
2017-01-03T03:39:37.961Z,4.24
2017-01-03T03:40:37.172Z,4.2
2017-01-03T03:41:37.987Z,4.13
2017-01-03T03:42:37.996Z,4.24
2017-01-03T03:43:37.611Z,4.28
2017-01-03T03:44:37.629Z,4.2
2017-01-03T03:45:37.637Z,4.17
2017-01-03T03:46:37.253Z,4.22
2017-01-03T03:47:37.259Z,4.31
2017-01-03T03:48:37.271Z,4.34
2017-01-03T03:49:37.704Z,4.28
2017-01-03T03:50:37.697Z,4.37
2017-01-03T03:51:37.707Z,4.4
2017-01-03T03:52:38.119Z,4.42
2017-01-03T03:53:37.731Z,4.37
2017-01-03T03:54:37.746Z,4.32
2017-01-03T03:55:38.159Z,4.35
2017-01-03T03:56:37.774Z,4.4
2017-01-03T03:57:37.388Z,4.5
2017-01-03T03:58:38.225Z,4.35
2017-01-03T03:59:52.692Z,4.49
2017-01-03T04:00:38.218Z,4.48
2017-01-03T04:01:37.429Z,4.4
2017-01-03T04:02:37.846Z,4.52
2017-01-03T04:03:37.455Z,4.45
2017-01-03T04:04:38.267Z,4.53
2017-01-03T04:05:37.880Z,4.53
2017-01-03T04:06:38.304Z,4.42
2017-01-03T04:07:38.306Z,4.49
2017-01-03T04:08:37.920Z,4.52
2017-01-03T04:09:38.349Z,4.49
2017-01-03T04:10:37.961Z,4.45
2017-01-03T04:11:38.350Z,4.48
2017-01-03T04:12:37.573Z,4.5
2017-01-03T04:13:37.980Z,4.5
2017-01-03T04:14:37.989Z,4.52
2017-01-03T04:15:38.002Z,4.52
2017-01-03T04:16:37.613Z,4.49
2017-01-03T04:17:38.028Z,4.41
2017-01-03T04:18:38.037Z,4.37
2017-01-03T04:19:38.050Z,4.44
2017-01-03T04:20:38.068Z,4.49
2017-01-03T04:21:38.476Z,4.45
2017-01-03T04:22:38.089Z,4.52
2017-01-03T04:23:38.099Z,4.52
2017-01-03T04:24:38.113Z,4.49
2017-01-03T04:25:38.157Z,4.37
2017-01-03T04:26:38.563Z,4.48
2017-01-03T04:27:38.166Z,4.31
2017-01-03T04:28:38.182Z,4.37
2017-01-03T04:29:38.179Z,4.37
2017-01-03T04:30:38.186Z,4.5
2017-01-03T04:31:38.603Z,4.49
2017-01-03T04:32:38.214Z,4.55
2017-01-03T04:33:38.222Z,4.56
2017-01-03T04:34:38.238Z,4.53
2017-01-03T04:35:38.246Z,4.45
2017-01-03T04:36:37.917Z,4.59
2017-01-03T04:37:38.274Z,4.55
2017-01-03T04:38:38.305Z,4.49
2017-01-03T04:39:37.899Z,4.53
2017-01-03T04:40:38.308Z,4.45
2017-01-03T04:41:37.920Z,4.42
2017-01-03T04:42:38.342Z,4.4
2017-01-03T04:43:38.345Z,4.32
2017-01-03T04:44:37.963Z,4.42
2017-01-03T04:45:38.371Z,4.45
2017-01-03T04:46:38.386Z,4.52
2017-01-03T04:47:38.793Z,4.48
2017-01-03T04:48:38.824Z,4.53
2017-01-03T04:49:38.838Z,4.5
2017-01-03T04:50:38.834Z,4.52
2017-01-03T04:51:38.446Z,4.53
2017-01-03T04:52:38.056Z,4.5
2017-01-03T04:53:38.504Z,4.5
2017-01-03T04:54:38.486Z,4.49
2017-01-03T04:55:38.899Z,4.49
2017-01-03T04:56:38.513Z,4.5
2017-01-03T04:57:38.123Z,4.5
2017-01-03T04:58:38.531Z,4.49
2017-01-03T04:59:38.148Z,4.52
2017-01-03T05:00:38.160Z,4.52
2017-01-03T05:01:38.571Z,4.55
2017-01-03T05:02:38.583Z,4.49
2017-01-03T05:03:38.595Z,4.49
2017-01-03T05:04:38.208Z,4.49
2017-01-03T05:05:38.220Z,4.52
2017-01-03T05:06:38.635Z,4.45
2017-01-03T05:07:38.649Z,4.49
2017-01-03T05:08:39.058Z,4.52
2017-01-03T05:09:38.671Z,4.52
2017-01-03T05:10:38.684Z,4.52
2017-01-03T05:11:38.698Z,4.45
2017-01-03T05:12:38.703Z,4.48
2017-01-03T05:13:38.719Z,4.48
2017-01-03T05:14:38.334Z,4.53
2017-01-03T05:15:39.144Z,4.48
2017-01-03T05:16:38.759Z,4.53
2017-01-03T05:17:38.382Z,4.48
2017-01-03T05:18:38.388Z,4.44
2017-01-03T05:19:38.400Z,4.48
2017-01-03T05:20:39.205Z,4.48
2017-01-03T05:21:39.218Z,4.5
2017-01-03T05:22:38.833Z,4.5
2017-01-03T05:23:38.445Z,4.52
2017-01-03T05:24:38.855Z,4.5
2017-01-03T05:25:38.464Z,4.52
2017-01-03T05:26:38.485Z,4.5
2017-01-03T05:27:38.496Z,4.48
2017-01-03T05:28:38.508Z,4.58
2017-01-03T05:29:38.921Z,4.49
2017-01-03T05:30:39.331Z,4.6
2017-01-03T05:31:38.964Z,4.6
2017-01-03T05:32:38.974Z,4.6
2017-01-03T05:33:38.968Z,4.59
2017-01-03T05:34:38.580Z,4.58
2017-01-03T05:35:38.997Z,4.58
2017-01-03T05:36:38.607Z,4.59
2017-01-03T05:37:39.019Z,4.6
2017-01-03T05:38:39.065Z,4.59
2017-01-03T05:39:39.039Z,4.56
2017-01-03T05:40:39.452Z,4.56
2017-01-03T05:41:39.066Z,4.63
2017-01-03T05:42:38.682Z,4.62
2017-01-03T05:43:39.111Z,4.56
2017-01-03T05:44:39.103Z,4.6
2017-01-03T05:45:39.518Z,4.58
2017-01-03T05:46:39.129Z,4.63
2017-01-03T05:47:39.142Z,4.58
2017-01-03T05:48:39.555Z,4.6
2017-01-03T05:49:39.190Z,4.62
2017-01-03T05:50:38.779Z,4.52
2017-01-03T05:51:38.796Z,4.48
2017-01-03T05:52:39.606Z,4.41
2017-01-03T05:53:38.817Z,4.42
2017-01-03T05:54:39.229Z,4.45
2017-01-03T05:55:39.641Z,4.42
2017-01-03T05:56:39.256Z,4.37
2017-01-03T05:57:38.869Z,4.44
2017-01-03T05:58:38.880Z,4.4
2017-01-03T05:59:39.293Z,4.34
2017-01-03T06:00:39.319Z,4.23
2017-01-03T06:01:39.333Z,4.35
2017-01-03T06:02:38.942Z,4.34
2017-01-03T06:03:38.943Z,4.34
2017-01-03T06:04:39.763Z,4.38
2017-01-03T06:05:39.763Z,4.4
2017-01-03T06:06:39.780Z,4.41
2017-01-03T06:07:39.394Z,4.49
2017-01-03T06:08:39.006Z,4.41
2017-01-03T06:09:39.817Z,4.31
2017-01-03T06:10:39.034Z,4.32
2017-01-03T06:11:39.072Z,4.44
2017-01-03T06:12:39.060Z,4.42
2017-01-03T06:13:39.864Z,4.5
2017-01-03T06:14:39.480Z,4.44
2017-01-03T06:15:39.491Z,4.32
2017-01-03T06:16:39.503Z,4.37
2017-01-03T06:17:39.518Z,4.31
2017-01-03T06:18:39.527Z,4.26
2017-01-03T06:19:39.544Z,4.3
2017-01-03T06:20:39.160Z,4.26
2017-01-03T06:21:39.172Z,4.28
2017-01-03T06:22:39.584Z,4.3
2017-01-03T06:23:39.592Z,4.3
2017-01-03T06:24:39.609Z,4.37
2017-01-03T06:25:39.614Z,4.35
2017-01-03T06:26:39.227Z,4.42
2017-01-03T06:27:39.643Z,4.38
2017-01-03T06:28:39.659Z,4.23
2017-01-03T06:29:39.666Z,4.28
2017-01-03T06:30:39.678Z,4.17
2017-01-03T06:31:39.693Z,4.24
2017-01-03T06:32:40.106Z,4.3
2017-01-03T06:33:39.720Z,4.23
2017-01-03T06:34:39.729Z,4.14
2017-01-03T06:35:40.139Z,4.28
2017-01-03T06:36:39.754Z,4.24
2017-01-03T06:37:39.367Z,4.19
2017-01-03T06:38:39.783Z,4.28
2017-01-03T06:39:39.390Z,4.32
2017-01-03T06:40:39.803Z,4.4
2017-01-03T06:41:39.816Z,4.32
2017-01-03T06:42:39.429Z,4.32
2017-01-03T06:43:39.861Z,4.23
2017-01-03T06:44:40.253Z,4.26
2017-01-03T06:45:40.264Z,4.31
2017-01-03T06:46:39.880Z,4.3
2017-01-03T06:47:39.890Z,4.28
2017-01-03T06:48:39.901Z,4.37
2017-01-03T06:49:39.914Z,4.23
2017-01-03T06:50:39.931Z,4.19
2017-01-03T06:51:39.940Z,4.23
2017-01-03T06:52:39.553Z,4.24
2017-01-03T06:53:39.963Z,4.19
2017-01-03T06:54:39.996Z,4.2
2017-01-03T06:55:40.009Z,4.2
2017-01-03T06:56:40.002Z,4.26
2017-01-03T06:57:40.014Z,4.23
2017-01-03T06:58:40.023Z,4.32
2017-01-03T06:59:40.441Z,4.14
2017-01-03T07:00:39.651Z,4.17
2017-01-03T07:01:39.672Z,4.16
2017-01-03T07:02:40.075Z,4.16
2017-01-03T07:03:40.086Z,4.14
2017-01-03T07:04:40.113Z,4.12
2017-01-03T07:05:39.731Z,4.01
2017-01-03T07:06:40.123Z,4.05
2017-01-03T07:07:40.533Z,4.16
2017-01-03T07:08:39.749Z,4.12
2017-01-03T07:09:40.559Z,4.14
2017-01-03T07:10:40.177Z,4.17
2017-01-03T07:11:39.860Z,4.17
2017-01-03T07:12:40.596Z,4.28
2017-01-03T07:13:40.612Z,4.2
2017-01-03T07:14:40.628Z,4.13
2017-01-03T07:15:40.953Z,4.14
2017-01-03T07:16:40.649Z,4.13
2017-01-03T07:17:39.860Z,4.24
2017-01-03T07:18:40.307Z,4.23
2017-01-03T07:19:40.692Z,4.2
2017-01-03T07:20:40.295Z,4.2
2017-01-03T07:21:39.908Z,4.2
2017-01-03T07:22:40.320Z,4.2
2017-01-03T07:23:40.351Z,4.16
2017-01-03T07:24:40.345Z,4.24
2017-01-03T07:25:40.361Z,4.22
2017-01-03T07:26:40.787Z,4.28
2017-01-03T07:27:40.385Z,4.28
2017-01-03T07:28:39.999Z,4.34
2017-01-03T07:29:40.005Z,4.28
2017-01-03T07:30:40.024Z,4.19
2017-01-03T07:31:40.830Z,4.24
2017-01-03T07:32:40.449Z,4.16
2017-01-03T07:33:40.079Z,4.13
2017-01-03T07:34:40.869Z,4.13
2017-01-03T07:35:40.880Z,4.16
2017-01-03T07:36:40.494Z,4.2
2017-01-03T07:37:40.905Z,4.17
2017-01-03T07:38:40.122Z,4.17
2017-01-03T07:39:40.929Z,4.19
2017-01-03T07:40:40.554Z,4.24
2017-01-03T07:41:40.204Z,4.2
2017-01-03T07:42:40.189Z,4.23
2017-01-03T07:43:40.980Z,4.24
2017-01-03T07:44:41.010Z,4.19
2017-01-03T07:45:40.620Z,4.31
2017-01-03T07:46:40.618Z,4.22
2017-01-03T07:47:40.231Z,4.24
2017-01-03T07:48:40.642Z,4.26
2017-01-03T07:49:40.255Z,4.2
2017-01-03T07:50:41.086Z,4.31
2017-01-03T07:51:40.281Z,4.2
2017-01-03T07:52:41.095Z,4.26
2017-01-03T07:53:40.704Z,4.24
2017-01-03T07:54:40.722Z,4.22
2017-01-03T07:55:41.142Z,4.12
2017-01-03T07:56:40.351Z,4.2
2017-01-03T07:57:40.749Z,4.2
2017-01-03T07:58:41.163Z,4.26
2017-01-03T07:59:40.778Z,4.23
2017-01-03T08:00:40.789Z,4.28
2017-01-03T08:01:40.404Z,4.22
2017-01-03T08:02:40.828Z,4.19
2017-01-03T08:03:40.430Z,4.19
2017-01-03T08:04:40.837Z,4.16
2017-01-03T08:05:41.262Z,4.13
2017-01-03T08:06:40.470Z,3.96
2017-01-03T08:07:40.874Z,4.01
2017-01-03T08:08:40.889Z,4.04
2017-01-03T08:09:40.901Z,4.01
2017-01-03T08:10:41.312Z,4.13
2017-01-03T08:11:40.926Z,4.06
2017-01-03T08:12:40.541Z,4.08
2017-01-03T08:13:40.954Z,4.14
2017-01-03T08:14:40.969Z,4.19
2017-01-03T08:15:40.973Z,4.3
2017-01-03T08:16:40.983Z,4.2
2017-01-03T08:17:41.397Z,4.14
2017-01-03T08:18:40.641Z,4.12
2017-01-03T08:19:40.626Z,4.2
2017-01-03T08:20:41.431Z,4.14
2017-01-03T08:21:40.649Z,4.17
2017-01-03T08:22:41.063Z,4.31
2017-01-03T08:23:41.482Z,4.19
2017-01-03T08:24:41.487Z,4.17
2017-01-03T08:25:41.101Z,4.28
2017-01-03T08:26:41.108Z,4.31
2017-01-03T08:27:41.122Z,4.34
2017-01-03T08:28:41.532Z,4.31
2017-01-03T08:29:40.747Z,4.23
2017-01-03T08:30:41.168Z,4.4
2017-01-03T08:31:41.172Z,4.34
2017-01-03T08:32:41.185Z,4.34
2017-01-03T08:33:41.205Z,4.32
2017-01-03T08:34:41.219Z,4.2
2017-01-03T08:35:41.621Z,4.35
2017-01-03T08:36:40.833Z,4.41
2017-01-03T08:37:41.249Z,4.35
2017-01-03T08:38:40.866Z,4.37
2017-01-03T08:39:40.870Z,4.31
2017-01-03T08:40:41.681Z,4.44
2017-01-03T08:41:40.900Z,4.38
2017-01-03T08:42:41.711Z,4.42
2017-01-03T08:43:41.322Z,4.41
2017-01-03T08:44:41.736Z,4.45
2017-01-03T08:45:41.343Z,4.35
2017-01-03T08:46:41.754Z,4.49
2017-01-03T08:47:41.366Z,4.5
2017-01-03T08:48:41.385Z,4.49
2017-01-03T08:49:41.801Z,4.5
2017-01-03T08:50:41.405Z,4.52
2017-01-03T08:51:41.019Z,4.49
2017-01-03T08:52:41.035Z,4.5
2017-01-03T08:53:41.852Z,4.48
2017-01-03T08:54:41.054Z,4.52
2017-01-03T08:55:41.868Z,4.48
2017-01-03T08:56:41.482Z,4.53
2017-01-03T08:57:41.121Z,4.52
2017-01-03T08:58:41.502Z,4.42
2017-01-03T08:59:41.915Z,4.4
2017-01-03T09:00:41.527Z,4.44
2017-01-03T09:01:41.541Z,4.44
2017-01-03T09:02:41.551Z,4.5
2017-01-03T09:03:41.168Z,4.5
2017-01-03T09:04:41.575Z,4.48
2017-01-03T09:05:41.191Z,4.45
2017-01-03T09:06:41.607Z,4.59
2017-01-03T09:07:41.634Z,4.48
2017-01-03T09:08:41.623Z,4.44
2017-01-03T09:09:41.642Z,4.5
2017-01-03T09:10:41.249Z,4.53
2017-01-03T09:11:42.060Z,4.42
2017-01-03T09:12:41.673Z,4.49
2017-01-03T09:13:42.090Z,4.45
2017-01-03T09:14:42.099Z,4.49
2017-01-03T09:15:41.313Z,4.45
2017-01-03T09:16:41.323Z,4.48
2017-01-03T09:17:41.739Z,4.45
2017-01-03T09:18:41.350Z,4.5
2017-01-03T09:19:41.765Z,4.53
2017-01-03T09:20:41.374Z,4.48
2017-01-03T09:21:41.781Z,4.45
2017-01-03T09:22:42.193Z,4.37
2017-01-03T09:23:41.805Z,4.49
2017-01-03T09:24:41.819Z,4.53
2017-01-03T09:25:41.836Z,4.49
2017-01-03T09:26:41.449Z,4.49
2017-01-03T09:27:41.874Z,4.49
2017-01-03T09:28:42.291Z,4.58
2017-01-03T09:29:42.280Z,4.52
2017-01-03T09:30:41.897Z,4.6
2017-01-03T09:31:41.508Z,4.62
2017-01-03T09:32:41.521Z,4.59
2017-01-03T09:33:41.932Z,4.6
2017-01-03T09:34:41.550Z,4.62
2017-01-03T09:35:41.966Z,4.6
2017-01-03T09:36:41.570Z,4.63
2017-01-03T09:37:41.586Z,4.56
2017-01-03T09:38:42.011Z,4.59
2017-01-03T09:39:41.608Z,4.62
2017-01-03T09:40:42.016Z,4.59
2017-01-03T09:41:42.033Z,4.59
2017-01-03T09:42:42.042Z,4.62
2017-01-03T09:43:42.053Z,4.75
2017-01-03T09:44:42.467Z,4.71
2017-01-03T09:45:42.479Z,4.84
2017-01-03T09:46:42.495Z,4.8
2017-01-03T09:47:42.512Z,4.68
2017-01-03T09:48:42.118Z,4.75
2017-01-03T09:49:42.133Z,4.8
2017-01-03T09:50:41.742Z,4.73
2017-01-03T09:51:42.160Z,4.86
2017-01-03T09:52:42.570Z,4.86
2017-01-03T09:53:41.786Z,4.9
2017-01-03T09:54:42.196Z,4.9
2017-01-03T09:55:42.607Z,5.02
2017-01-03T09:56:42.634Z,4.9
2017-01-03T09:57:42.242Z,4.93
2017-01-03T09:58:42.643Z,4.89
2017-01-03T09:59:42.265Z,4.93
2017-01-03T10:00:42.669Z,4.89
2017-01-03T10:01:42.284Z,4.94
2017-01-03T10:02:42.696Z,4.99
2017-01-03T10:03:42.312Z,4.94
2017-01-03T10:04:42.720Z,4.9
2017-01-03T10:05:42.334Z,4.89
2017-01-03T10:06:41.949Z,4.89
2017-01-03T10:07:41.965Z,4.74
2017-01-03T10:08:42.770Z,4.7
2017-01-03T10:09:42.787Z,4.74
2017-01-03T10:10:42.415Z,4.86
2017-01-03T10:11:42.029Z,4.77
2017-01-03T10:12:42.039Z,4.74
2017-01-03T10:13:42.038Z,4.71
2017-01-03T10:14:42.850Z,4.67
2017-01-03T10:15:42.868Z,4.77
2017-01-03T10:16:42.078Z,4.82
2017-01-03T10:17:42.095Z,4.6
2017-01-03T10:18:42.507Z,4.55
2017-01-03T10:19:42.913Z,4.56
2017-01-03T10:20:42.529Z,4.58
2017-01-03T10:21:42.551Z,4.58
2017-01-03T10:22:42.561Z,4.59
2017-01-03T10:23:42.166Z,4.59
2017-01-03T10:24:42.605Z,4.48
2017-01-03T10:25:42.197Z,4.49
2017-01-03T10:26:42.205Z,4.52
2017-01-03T10:27:42.224Z,4.52
2017-01-03T10:28:43.036Z,4.52
2017-01-03T10:29:42.270Z,4.48
2017-01-03T10:30:43.055Z,4.48
2017-01-03T10:31:42.665Z,4.48
2017-01-03T10:32:42.306Z,4.38
2017-01-03T10:33:43.094Z,4.2
2017-01-03T10:34:43.104Z,4.17
2017-01-03T10:35:42.718Z,4.16
2017-01-03T10:36:42.733Z,4.2
2017-01-03T10:37:42.747Z,4.2
2017-01-03T10:38:42.756Z,4.12
2017-01-03T10:39:43.168Z,4.17
2017-01-03T10:40:42.383Z,4.14
2017-01-03T10:41:42.805Z,4.19
2017-01-03T10:42:42.429Z,4.14
2017-01-03T10:43:43.238Z,4.16
2017-01-03T10:44:43.232Z,4.17
2017-01-03T10:45:42.846Z,4.14
2017-01-03T10:46:42.857Z,4.16
2017-01-03T10:47:42.870Z,4.24
2017-01-03T10:48:42.882Z,4.19
2017-01-03T10:49:42.932Z,4.37
2017-01-03T10:50:42.905Z,4.53
2017-01-03T10:51:43.318Z,4.49
2017-01-03T10:52:43.328Z,4.59
2017-01-03T10:53:43.358Z,4.62
2017-01-03T10:54:42.969Z,4.6
2017-01-03T10:55:42.972Z,4.58
2017-01-03T10:56:42.981Z,4.67
2017-01-03T10:57:42.597Z,4.77
2017-01-03T10:58:42.610Z,4.8
2017-01-03T10:59:43.420Z,4.7
2017-01-03T11:00:43.043Z,4.63
2017-01-03T11:01:42.722Z,4.66
2017-01-03T11:02:43.459Z,4.78
2017-01-03T11:03:43.468Z,4.82
2017-01-03T11:04:43.099Z,4.71
2017-01-03T11:05:43.498Z,4.7
2017-01-03T11:06:43.112Z,4.9
2017-01-03T11:07:42.727Z,4.93
2017-01-03T11:08:43.540Z,4.93
2017-01-03T11:09:43.549Z,4.96
2017-01-03T11:10:43.565Z,4.89
2017-01-03T11:11:43.177Z,4.93
2017-01-03T11:12:43.589Z,4.93
2017-01-03T11:13:42.804Z,4.89
2017-01-03T11:14:43.214Z,4.82
2017-01-03T11:15:42.830Z,4.9
2017-01-03T11:16:43.263Z,4.89
2017-01-03T11:17:43.650Z,4.82
2017-01-03T11:18:43.268Z,4.87
2017-01-03T11:19:42.882Z,4.87
2017-01-03T11:20:42.896Z,4.94
2017-01-03T11:21:43.307Z,4.92
2017-01-03T11:22:43.318Z,4.87
2017-01-03T11:23:43.333Z,4.96
2017-01-03T11:24:43.747Z,4.89
2017-01-03T11:25:43.753Z,4.89
2017-01-03T11:26:43.787Z,4.92
2017-01-03T11:27:43.780Z,4.75
2017-01-03T11:28:42.997Z,4.8
2017-01-03T11:29:43.419Z,4.71
2017-01-03T11:30:43.028Z,4.8
2017-01-03T11:31:43.433Z,4.8
2017-01-03T11:32:43.054Z,4.93
2017-01-03T11:33:43.458Z,4.92
2017-01-03T11:34:43.879Z,4.87
2017-01-03T11:35:43.088Z,4.86
2017-01-03T11:36:43.506Z,4.87
2017-01-03T11:37:43.948Z,4.87
2017-01-03T11:38:43.528Z,4.86
2017-01-03T11:39:43.138Z,4.92
2017-01-03T11:40:43.152Z,4.86
2017-01-03T11:41:43.564Z,4.84
2017-01-03T11:42:43.178Z,4.8
2017-01-03T11:43:43.596Z,4.74
2017-01-03T11:44:43.608Z,4.67
2017-01-03T11:45:43.615Z,4.78
2017-01-03T11:46:43.638Z,4.8
2017-01-03T11:47:44.045Z,4.8
2017-01-03T11:48:43.260Z,4.74
2017-01-03T11:49:44.066Z,4.74
2017-01-03T11:50:44.085Z,4.82
2017-01-03T11:51:43.695Z,4.9
2017-01-03T11:52:43.711Z,4.77
2017-01-03T11:53:43.721Z,4.8
2017-01-03T11:54:43.738Z,4.9
2017-01-03T11:55:43.747Z,4.93
2017-01-03T11:56:43.372Z,4.92
2017-01-03T11:57:43.774Z,4.89
2017-01-03T11:58:43.403Z,4.86
2017-01-03T11:59:43.815Z,4.93
2017-01-03T12:00:43.815Z,5.04
2017-01-03T12:01:43.828Z,5
2017-01-03T12:02:43.443Z,5.12
2017-01-03T12:03:43.851Z,5.02
2017-01-03T12:04:43.468Z,4.9
2017-01-03T12:05:43.879Z,5.04
2017-01-03T12:06:43.893Z,5.1
2017-01-03T12:07:43.907Z,5.08
2017-01-03T12:08:43.917Z,5.07
2017-01-03T12:09:43.528Z,5.05
2017-01-03T12:10:43.949Z,5
2017-01-03T12:11:44.358Z,5.08
2017-01-03T12:12:44.392Z,4.99
2017-01-03T12:13:44.382Z,5.02
2017-01-03T12:14:44.002Z,5.1
2017-01-03T12:15:44.020Z,5.25
2017-01-03T12:16:44.017Z,5.38
2017-01-03T12:17:43.637Z,5.44
2017-01-03T12:18:44.448Z,5.46
2017-01-03T12:19:44.066Z,5.48
2017-01-03T12:20:44.075Z,5.51
2017-01-03T12:21:44.092Z,5.48
2017-01-03T12:22:44.502Z,5.64
2017-01-03T12:23:43.719Z,5.57
2017-01-03T12:24:44.528Z,5.59
2017-01-03T12:25:43.742Z,5.66
2017-01-03T12:26:43.764Z,5.62
2017-01-03T12:27:43.772Z,5.48
2017-01-03T12:28:44.583Z,5.57
2017-01-03T12:29:44.199Z,5.39
2017-01-03T12:30:44.616Z,5.41
2017-01-03T12:31:44.637Z,5.41
2017-01-03T12:32:44.642Z,5.5
2017-01-03T12:33:44.652Z,5.46
2017-01-03T12:34:44.688Z,5.65
2017-01-03T12:35:44.676Z,5.51
2017-01-03T12:36:44.294Z,5.51
2017-01-03T12:37:44.311Z,5.48
2017-01-03T12:38:44.725Z,5.61
2017-01-03T12:39:44.341Z,5.54
2017-01-03T12:40:44.346Z,5.56
2017-01-03T12:41:44.359Z,5.61
2017-01-03T12:42:44.776Z,5.61
2017-01-03T12:43:44.386Z,5.64
2017-01-03T12:44:44.404Z,5.65
2017-01-03T12:45:44.413Z,5.64
2017-01-03T12:46:44.030Z,5.69
2017-01-03T12:47:44.845Z,5.8
2017-01-03T12:48:44.878Z,5.66
2017-01-03T12:49:44.484Z,5.75
2017-01-03T12:50:44.487Z,5.89
2017-01-03T12:51:44.498Z,5.98
2017-01-03T12:52:44.513Z,6.08
2017-01-03T12:53:44.523Z,6.12
2017-01-03T12:54:44.541Z,6.04
2017-01-03T12:55:44.555Z,6.24
2017-01-03T12:56:44.174Z,6.31
2017-01-03T12:57:44.191Z,6.46
2017-01-03T12:58:44.198Z,6.54
2017-01-03T12:59:44.216Z,6.41
2017-01-03T13:00:44.624Z,6.36
2017-01-03T13:01:44.238Z,6.39
2017-01-03T13:02:45.052Z,6.35
2017-01-03T13:03:44.684Z,6.36
2017-01-03T13:04:44.681Z,6.27
2017-01-03T13:05:44.716Z,6.35
2017-01-03T13:06:45.119Z,6.28
2017-01-03T13:07:44.325Z,6.14
2017-01-03T13:08:44.740Z,6.26
2017-01-03T13:09:44.752Z,6.24
2017-01-03T13:10:44.372Z,6.26
2017-01-03T13:11:44.784Z,6.27
2017-01-03T13:12:44.795Z,6.26
2017-01-03T13:13:44.809Z,6.26
2017-01-03T13:14:44.426Z,6.26
2017-01-03T13:15:44.846Z,6.24
2017-01-03T13:16:45.253Z,6.38
2017-01-03T13:17:44.888Z,6.41
2017-01-03T13:18:45.304Z,6.38
2017-01-03T13:19:44.512Z,6.45
2017-01-03T13:20:44.946Z,6.51
2017-01-03T13:21:44.925Z,6.52
2017-01-03T13:22:44.541Z,6.59
2017-01-03T13:23:44.957Z,6.54